Time,TemperatureF,DewpointF,PressureIn,WindDirection,WindDirectionDegrees,WindSpeedMPH,WindSpeedGustMPH,Humidity,HourlyPrecipIn,Conditions,Clouds,dailyrainin,SoftwareType,DateUTC
2013-01-16 00:08:00,1.5,-7.0,30.67,West,266,1.0,-999.0,68,-99.99,,,0.00,weatherlink.com 1.10,2013-01-16 07:08:00,
2013-01-16 00:23:00,1.3,-7.0,30.64,West,266,2.0,-999.0,68,-99.99,,,0.00,weatherlink.com 1.10,2013-01-16 07:23:00,
2013-01-16 00:38:00,1.3,-7.0,30.64,West,266,2.0,-999.0,68,-99.99,,,0.00,weatherlink.com 1.10,2013-01-16 07:38:00,
2013-01-16 00:53:00,1.5,-7.0,30.64,West,266,0.0,-999.0,68,-99.99,,,0.00,weatherlink.com 1.10,2013-01-16 07:53:00,
2013-01-16 01:08:00,1.1,-7.0,30.64,West,266,2.0,-999.0,68,-99.99,,,0.00,weatherlink.com 1.10,2013-01-16 08:08:00,
2013-01-16 01:23:00,0.9,-7.0,30.63,West,266,1.0,-999.0,68,-99.99,,,0.00,weatherlink.com 1.10,2013-01-16 08:23:00,
2013-01-16 01:38:00,0.5,-7.0,30.64,West,266,2.0,-999.0,69,-99.99,,,0.00,weatherlink.com 1.10,2013-01-16 08:38:00,
2013-01-16 01:54:00,0.5,-7.0,30.64,West,266,1.0,-999.0,69,-99.99,,,0.00,weatherlink.com 1.10,2013-01-16 08:54:00,
2013-01-16 02:09:00,0.9,-7.0,30.64,West,266,2.0,-999.0,70,-99.99,,,0.00,weatherlink.com 1.10,2013-01-16 09:09:00,
2013-01-16 02:24:00,0.0,-8.0,30.61,West,266,3.0,-999.0,69,-99.99,,,0.00,weatherlink.com 1.10,2013-01-16 09:24:00,
2013-01-16 02:39:00,0.1,-8.0,30.62,West,266,3.0,-999.0,70,-99.99,,,0.00,weatherlink.com 1.10,2013-01-16 09:39:00,
2013-01-16 02:54:00,0.3,-7.0,30.62,West,266,2.0,-999.0,70,-99.99,,,0.00,weatherlink.com 1.10,2013-01-16 09:54:00,
2013-01-16 03:09:00,0.3,-7.0,30.62,West,266,2.0,-999.0,70,-99.99,,,0.00,weatherlink.com 1.10,2013-01-16 10:09:00,
2013-01-16 03:24:00,0.3,-7.0,30.61,West,266,0.0,-999.0,70,-99.99,,,0.00,weatherlink.com 1.10,2013-01-16 10:24:00,
2013-01-16 03:39:00,0.3,-7.0,30.61,West,266,0.0,-999.0,70,-99.99,,,0.00,weatherlink.com 1.10,2013-01-16 10:39:00,
2013-01-16 03:54:00,0.3,-7.0,30.63,West,266,2.0,-999.0,70,-99.99,,,0.00,weatherlink.com 1.10,2013-01-16 10:54:00,
2013-01-16 04:09:00,0.0,-8.0,30.62,West,267,2.0,-999.0,70,-99.99,,,0.00,weatherlink.com 1.10,2013-01-16 11:09:00,
2013-01-16 04:24:00,-0.2,-8.0,30.63,West,267,2.0,-999.0,70,-99.99,,,0.00,weatherlink.com 1.10,2013-01-16 11:24:00,
2013-01-16 04:39:00,-0.6,-8.0,30.63,West,267,1.0,-999.0,70,-99.99,,,0.00,weatherlink.com 1.10,2013-01-16 11:39:00,
2013-01-16 04:55:00,-0.2,-8.0,30.63,West,267,1.0,-999.0,71,-99.99,,,0.00,weatherlink.com 1.10,2013-01-16 11:55:00,
2013-01-16 05:10:00,0.0,-8.0,30.64,West,267,0.0,-999.0,70,-99.99,,,0.00,weatherlink.com 1.10,2013-01-16 12:10:00,
2013-01-16 05:25:00,0.1,-7.0,30.67,West,267,1.0,-999.0,71,-99.99,,,0.00,weatherlink.com 1.10,2013-01-16 12:25:00,
2013-01-16 05:40:00,0.3,-7.0,30.66,West,267,0.0,-999.0,72,-99.99,,,0.00,weatherlink.com 1.10,2013-01-16 12:40:00,
2013-01-16 05:55:00,0.0,-8.0,30.67,West,267,1.0,-999.0,70,-99.99,,,0.00,weatherlink.com 1.10,2013-01-16 12:55:00,
2013-01-16 06:13:00,-0.2,-8.0,30.68,West,267,2.0,-999.0,71,-99.99,,,0.00,weatherlink.com 1.10,2013-01-16 13:13:00,
2013-01-16 06:25:00,-0.2,-8.0,30.73,West,267,0.0,-999.0,71,-99.99,,,0.00,weatherlink.com 1.10,2013-01-16 13:25:00,
2013-01-16 06:40:00,-0.6,-8.0,30.73,West,267,0.0,-999.0,70,-99.99,,,0.00,weatherlink.com 1.10,2013-01-16 13:40:00,
2013-01-16 06:55:00,-1.4,-9.0,30.75,West,267,1.0,-999.0,71,-99.99,,,0.00,weatherlink.com 1.10,2013-01-16 13:55:00,
2013-01-16 07:13:00,-1.0,-8.0,30.75,West,267,2.0,-999.0,71,-99.99,,,0.00,weatherlink.com 1.10,2013-01-16 14:13:00,
2013-01-16 07:25:00,-1.2,-9.0,30.79,West,267,0.0,-999.0,71,-99.99,,,0.00,weatherlink.com 1.10,2013-01-16 14:25:00,
2013-01-16 07:40:00,-1.2,-9.0,30.80,West,267,1.0,-999.0,71,-99.99,,,0.00,weatherlink.com 1.10,2013-01-16 14:40:00,
2013-01-16 07:55:00,0.1,-7.0,30.79,West,267,0.0,-999.0,72,-99.99,,,0.00,weatherlink.com 1.10,2013-01-16 14:55:00,
2013-01-16 08:10:00,1.8,-6.0,30.78,West,267,3.0,-999.0,71,-99.99,,,0.00,weatherlink.com 1.10,2013-01-16 15:10:00,
2013-01-16 08:25:00,3.7,-4.0,30.79,West,267,1.0,-999.0,69,-99.99,,,0.00,weatherlink.com 1.10,2013-01-16 15:25:00,
2013-01-16 08:40:00,5.8,-3.0,30.79,West,267,1.0,-999.0,68,-99.99,,,0.00,weatherlink.com 1.10,2013-01-16 15:40:00,
2013-01-16 08:55:00,7.4,-3.0,30.76,West,267,1.0,-999.0,64,-99.99,,,0.00,weatherlink.com 1.10,2013-01-16 15:55:00,
2013-01-16 09:10:00,9.3,-1.0,30.77,West,267,1.0,-999.0,63,-99.99,,,0.00,weatherlink.com 1.10,2013-01-16 16:10:00,
2013-01-16 09:25:00,11.9,0.0,30.76,West,267,0.0,-999.0,60,-99.99,,,0.00,weatherlink.com 1.10,2013-01-16 16:25:00,
2013-01-16 09:40:00,13.8,1.0,30.75,West,267,0.0,-999.0,57,-99.99,,,0.00,weatherlink.com 1.10,2013-01-16 16:40:00,
2013-01-16 09:55:00,14.3,1.0,30.76,West,267,0.0,-999.0,55,-99.99,,,0.00,weatherlink.com 1.10,2013-01-16 16:55:00,
2013-01-16 10:10:00,14.9,0.0,30.76,West,267,0.0,-999.0,52,-99.99,,,0.00,weatherlink.com 1.10,2013-01-16 17:10:00,
2013-01-16 10:25:00,15.9,1.0,30.76,West,267,0.0,-999.0,51,-99.99,,,0.00,weatherlink.com 1.10,2013-01-16 17:25:00,
2013-01-16 10:40:00,17.8,2.0,30.75,West,267,0.0,-999.0,49,-99.99,,,0.00,weatherlink.com 1.10,2013-01-16 17:40:00,
2013-01-16 10:56:00,19.4,2.0,30.72,West,267,0.0,-999.0,46,-99.99,,,0.00,weatherlink.com 1.10,2013-01-16 17:56:00,
2013-01-16 11:11:00,18.9,1.0,30.72,West,267,2.0,-999.0,46,-99.99,,,0.00,weatherlink.com 1.10,2013-01-16 18:11:00,
2013-01-16 11:26:00,21.0,2.0,30.70,West,267,3.0,-999.0,44,-99.99,,,0.00,weatherlink.com 1.10,2013-01-16 18:26:00,
2013-01-16 11:41:00,21.3,3.0,30.68,West,267,2.0,-999.0,45,-99.99,,,0.00,weatherlink.com 1.10,2013-01-16 18:41:00,
2013-01-16 11:56:00,22.4,2.0,30.67,West,267,0.0,-999.0,42,-99.99,,,0.00,weatherlink.com 1.10,2013-01-16 18:56:00,
2013-01-16 12:11:00,23.8,2.0,30.64,West,267,2.0,-999.0,39,-99.99,,,0.00,weatherlink.com 1.10,2013-01-16 19:11:00,
2013-01-16 12:26:00,24.8,2.0,30.63,West,267,0.0,-999.0,37,-99.99,,,0.00,weatherlink.com 1.10,2013-01-16 19:26:00,
2013-01-16 12:41:00,24.5,3.0,30.62,West,266,5.0,-999.0,40,-99.99,,,0.00,weatherlink.com 1.10,2013-01-16 19:41:00,
2013-01-16 12:56:00,24.2,3.0,30.62,West,266,4.0,-999.0,40,-99.99,,,0.00,weatherlink.com 1.10,2013-01-16 19:56:00,
2013-01-16 13:11:00,24.8,2.0,30.62,West,266,1.0,-999.0,38,-99.99,,,0.00,weatherlink.com 1.10,2013-01-16 20:11:00,
2013-01-16 13:26:00,25.6,3.0,30.60,West,266,1.0,-999.0,38,-99.99,,,0.00,weatherlink.com 1.10,2013-01-16 20:26:00,
2013-01-16 13:42:00,25.7,3.0,30.59,West,266,3.0,-999.0,38,-99.99,,,0.00,weatherlink.com 1.10,2013-01-16 20:42:00,
2013-01-16 13:57:00,26.1,5.0,30.59,West,266,5.0,-999.0,41,-99.99,,,0.00,weatherlink.com 1.10,2013-01-16 20:57:00,
2013-01-16 14:12:00,26.0,6.0,30.58,West,266,1.0,-999.0,42,-99.99,,,0.00,weatherlink.com 1.10,2013-01-16 21:12:00,
2013-01-16 14:27:00,26.4,4.0,30.59,WSW,248,7.0,-999.0,39,-99.99,,,0.00,weatherlink.com 1.10,2013-01-16 21:27:00,
2013-01-16 14:42:00,26.3,4.0,30.59,West,261,5.0,-999.0,39,-99.99,,,0.00,weatherlink.com 1.10,2013-01-16 21:42:00,
2013-01-16 14:57:00,26.4,4.0,30.59,West,261,3.0,-999.0,39,-99.99,,,0.00,weatherlink.com 1.10,2013-01-16 21:57:00,
2013-01-16 15:12:00,26.9,5.0,30.59,West,261,3.0,-999.0,39,-99.99,,,0.00,weatherlink.com 1.10,2013-01-16 22:12:00,
2013-01-16 15:27:00,27.5,5.0,30.59,West,261,1.0,-999.0,39,-99.99,,,0.00,weatherlink.com 1.10,2013-01-16 22:27:00,
2013-01-16 15:42:00,27.2,5.0,30.58,West,261,3.0,-999.0,39,-99.99,,,0.00,weatherlink.com 1.10,2013-01-16 22:42:00,
2013-01-16 15:57:00,27.3,5.0,30.60,West,261,0.0,-999.0,39,-99.99,,,0.00,weatherlink.com 1.10,2013-01-16 22:57:00,
2013-01-16 16:12:00,27.3,5.0,30.60,West,261,4.0,-999.0,39,-99.99,,,0.00,weatherlink.com 1.10,2013-01-16 23:12:00,
2013-01-16 16:27:00,27.3,6.0,30.60,West,261,0.0,-999.0,40,-99.99,,,0.00,weatherlink.com 1.10,2013-01-16 23:27:00,
2013-01-16 16:42:00,27.0,6.0,30.58,West,261,3.0,-999.0,40,-99.99,,,0.00,weatherlink.com 1.10,2013-01-16 23:42:00,
2013-01-16 16:58:00,25.8,5.0,30.60,West,261,4.0,-999.0,42,-99.99,,,0.00,weatherlink.com 1.10,2013-01-16 23:58:00,
2013-01-16 17:13:00,24.2,6.0,30.60,West,261,2.0,-999.0,46,-99.99,,,0.00,weatherlink.com 1.10,2013-01-17 00:13:00,
2013-01-16 17:28:00,23.0,6.0,30.62,West,261,1.0,-999.0,48,-99.99,,,0.00,weatherlink.com 1.10,2013-01-17 00:28:00,
2013-01-16 17:43:00,21.9,6.0,30.64,West,261,0.0,-999.0,50,-99.99,,,0.00,weatherlink.com 1.10,2013-01-17 00:43:00,
2013-01-16 17:58:00,20.6,5.0,30.65,West,261,0.0,-999.0,51,-99.99,,,0.00,weatherlink.com 1.10,2013-01-17 00:58:00,
2013-01-16 18:13:00,20.2,5.0,30.67,West,261,0.0,-999.0,52,-99.99,,,0.00,weatherlink.com 1.10,2013-01-17 01:13:00,
2013-01-16 18:28:00,19.7,5.0,30.69,West,261,0.0,-999.0,53,-99.99,,,0.00,weatherlink.com 1.10,2013-01-17 01:28:00,
2013-01-16 18:43:00,18.1,4.0,30.69,West,261,0.0,-999.0,55,-99.99,,,0.00,weatherlink.com 1.10,2013-01-17 01:43:00,
2013-01-16 18:58:00,15.6,4.0,30.71,West,261,2.0,-999.0,59,-99.99,,,0.00,weatherlink.com 1.10,2013-01-17 01:58:00,
2013-01-16 19:13:00,12.9,2.0,30.72,West,261,2.0,-999.0,63,-99.99,,,0.00,weatherlink.com 1.10,2013-01-17 02:13:00,
2013-01-16 19:28:00,11.4,2.0,30.72,West,261,0.0,-999.0,65,-99.99,,,0.00,weatherlink.com 1.10,2013-01-17 02:28:00,
2013-01-16 19:43:00,10.7,2.0,30.74,West,261,0.0,-999.0,67,-99.99,,,0.00,weatherlink.com 1.10,2013-01-17 02:43:00,
2013-01-16 19:58:00,9.7,1.0,30.74,West,261,0.0,-999.0,67,-99.99,,,0.00,weatherlink.com 1.10,2013-01-17 02:58:00,
2013-01-16 20:13:00,8.8,0.0,30.77,West,261,0.0,-999.0,68,-99.99,,,0.00,weatherlink.com 1.10,2013-01-17 03:13:00,
2013-01-16 20:29:00,8.8,1.0,30.73,West,261,0.0,-999.0,69,-99.99,,,0.00,weatherlink.com 1.10,2013-01-17 03:29:00,
2013-01-16 20:44:00,8.8,1.0,30.73,West,261,0.0,-999.0,69,-99.99,,,0.00,weatherlink.com 1.10,2013-01-17 03:44:00,
2013-01-16 20:59:00,8.6,0.0,30.73,West,261,0.0,-999.0,68,-99.99,,,0.00,weatherlink.com 1.10,2013-01-17 03:59:00,
2013-01-16 21:14:00,8.6,0.0,30.73,West,262,4.0,-999.0,68,-99.99,,,0.00,weatherlink.com 1.10,2013-01-17 04:14:00,
2013-01-16 21:29:00,8.8,0.0,30.69,West,263,1.0,-999.0,68,-99.99,,,0.00,weatherlink.com 1.10,2013-01-17 04:29:00,
2013-01-16 21:44:00,7.9,-1.0,30.69,West,263,2.0,-999.0,68,-99.99,,,0.00,weatherlink.com 1.10,2013-01-17 04:44:00,
2013-01-16 21:59:00,7.6,-1.0,30.70,West,263,1.0,-999.0,68,-99.99,,,0.00,weatherlink.com 1.10,2013-01-17 04:59:00,
2013-01-16 22:14:00,7.4,-1.0,30.71,West,263,1.0,-999.0,69,-99.99,,,0.00,weatherlink.com 1.10,2013-01-17 05:14:00,
2013-01-16 22:29:00,7.0,-1.0,30.66,West,263,3.0,-999.0,69,-99.99,,,0.00,weatherlink.com 1.10,2013-01-17 05:29:00,
2013-01-16 22:44:00,6.9,-1.0,30.66,West,263,2.0,-999.0,70,-99.99,,,0.00,weatherlink.com 1.10,2013-01-17 05:44:00,
2013-01-16 22:59:00,7.0,-1.0,30.67,West,264,1.0,-999.0,70,-99.99,,,0.00,weatherlink.com 1.10,2013-01-17 05:59:00,
2013-01-16 23:14:00,6.7,-1.0,30.68,West,263,3.0,-999.0,70,-99.99,,,0.00,weatherlink.com 1.10,2013-01-17 06:14:00,
2013-01-16 23:29:00,6.3,-2.0,30.65,West,263,1.0,-999.0,70,-99.99,,,0.00,weatherlink.com 1.10,2013-01-17 06:29:00,
2013-01-16 23:44:00,5.8,-2.0,30.67,West,263,0.0,-999.0,71,-99.99,,,0.00,weatherlink.com 1.10,2013-01-17 06:44:00,